Time;durP1;ratioP1;P1;durP2;ratioP2;P2;SDS_P1;SDS_P2;PMS_P1;PMS_P2;Temp;Humidity;BMP_temperature;BMP_pressure;BME280_temperature;BME280_humidity;BME280_pressure;Samples;Min_cycle;Max_cycle;Signal;HPM_P1;HPM_P2
2021/05/15 00:00:54;;;;;;;0.52;0.40;;;21.90;40.70;;;;;;5071317;28;20391;-59
2021/05/15 00:03:20;;;;;;;0.75;0.40;;;21.80;40.60;;;;;;5066425;28;20419;-66
2021/05/15 00:05:46;;;;;;;0.80;0.50;;;21.80;40.70;;;;;;5073650;28;20380;-58
2021/05/15 00:08:13;;;;;;;0.80;0.40;;;21.80;40.60;;;;;;5078899;28;20389;-59
2021/05/15 00:10:38;;;;;;;0.60;0.40;;;21.80;40.60;;;;;;5062272;28;20439;-58
2021/05/15 00:13:04;;;;;;;1.10;0.40;;;21.80;40.50;;;;;;5082865;28;20395;-58
2021/05/15 00:15:30;;;;;;;0.70;0.40;;;21.80;40.50;;;;;;5085269;28;20393;-61
2021/05/15 00:17:56;;;;;;;0.80;0.40;;;21.80;40.50;;;;;;5085259;28;20394;-58
2021/05/15 00:20:22;;;;;;;0.77;0.47;;;21.80;40.50;;;;;;5065667;28;20793;-58
2021/05/15 00:22:48;;;;;;;0.80;0.40;;;21.80;40.60;;;;;;5085728;28;20776;-61
2021/05/15 00:25:16;;;;;;;0.93;0.40;;;21.80;40.50;;;;;;5085049;28;20383;-60
2021/05/15 00:27:42;;;;;;;0.80;0.45;;;21.80;40.50;;;;;;5083232;28;20402;-58
2021/05/15 00:30:10;;;;;;;0.80;0.40;;;21.80;40.60;;;;;;5064935;28;20395;-58
2021/05/15 00:32:36;;;;;;;0.77;0.40;;;21.70;40.50;;;;;;5077961;28;20400;-58
2021/05/15 00:35:04;;;;;;;0.95;0.40;;;21.80;40.50;;;;;;5083654;28;20817;-58
2021/05/15 00:37:29;;;;;;;0.75;0.40;;;21.70;40.50;;;;;;5082324;28;20898;-63
2021/05/15 00:39:55;;;;;;;0.80;0.40;;;21.70;40.50;;;;;;5081138;28;20400;-58
2021/05/15 00:42:21;;;;;;;0.80;0.40;;;21.80;40.50;;;;;;5080393;28;20408;-58
2021/05/15 00:44:47;;;;;;;0.60;0.40;;;21.70;40.60;;;;;;5086357;28;20470;-58
2021/05/15 00:47:20;;;;;;;0.60;0.35;;;21.70;40.50;;;;;;5074804;28;20391;-58
2021/05/15 00:49:47;;;;;;;0.70;0.30;;;21.70;40.50;;;;;;5074578;28;20372;-58
2021/05/15 00:52:13;;;;;;;0.60;0.40;;;21.70;40.50;;;;;;5074645;28;20752;-58
2021/05/15 00:54:40;;;;;;;0.68;0.40;;;21.70;40.60;;;;;;5056597;28;20380;-58
2021/05/15 00:57:08;;;;;;;0.77;0.40;;;21.70;40.50;;;;;;5074556;28;20490;-58
2021/05/15 00:59:34;;;;;;;0.77;0.40;;;21.70;40.60;;;;;;5074292;28;20453;-59
2021/05/15 01:02:00;;;;;;;0.85;0.60;;;21.70;40.60;;;;;;5074162;28;20419;-58
2021/05/15 01:04:26;;;;;;;0.63;0.30;;;21.70;41.20;;;;;;5074168;28;20450;-58
2021/05/15 01:06:52;;;;;;;0.65;0.30;;;21.70;40.70;;;;;;5074393;28;20415;-58
2021/05/15 01:09:18;;;;;;;0.70;0.40;;;21.70;41.00;;;;;;5074362;28;20476;-58
2021/05/15 01:11:44;;;;;;;0.93;0.40;;;21.70;41.20;;;;;;5076272;28;20449;-58
2021/05/15 01:14:10;;;;;;;0.80;0.40;;;21.70;41.60;;;;;;5083681;28;20390;-59
2021/05/15 01:16:36;;;;;;;0.80;0.40;;;21.70;41.90;;;;;;5083642;28;20383;-59
2021/05/15 01:19:03;;;;;;;0.70;0.30;;;21.70;41.90;;;;;;5081985;28;20399;-58
2021/05/15 01:21:30;;;;;;;0.80;0.30;;;21.70;41.90;;;;;;5083676;28;20418;-58
2021/05/15 01:23:56;;;;;;;0.60;0.30;;;21.70;42.00;;;;;;5082450;28;20747;-58
2021/05/15 01:26:25;;;;;;;0.60;0.30;;;21.70;42.00;;;;;;5081619;28;20402;-58
2021/05/15 01:28:53;;;;;;;0.60;0.30;;;21.70;42.30;;;;;;5083275;28;20460;-58
2021/05/15 01:31:19;;;;;;;1.02;0.50;;;21.70;42.10;;;;;;5083492;28;20415;-59
2021/05/15 01:33:46;;;;;;;0.43;0.30;;;21.70;42.20;;;;;;5063164;28;20434;-58
2021/05/15 01:36:12;;;;;;;0.60;0.32;;;21.70;42.10;;;;;;5083194;28;20390;-65
2021/05/15 01:38:39;;;;;;;0.80;0.40;;;21.70;42.30;;;;;;5065106;28;20942;-65
2021/05/15 01:41:13;;;;;;;0.80;0.40;;;21.70;41.90;;;;;;5081588;28;20956;-66
2021/05/15 01:43:39;;;;;;;0.70;0.40;;;21.70;41.90;;;;;;5081403;28;20480;-58
2021/05/15 01:46:06;;;;;;;0.80;0.40;;;21.70;41.80;;;;;;5083545;28;20481;-58
2021/05/15 01:48:33;;;;;;;0.90;0.40;;;21.70;41.60;;;;;;5078396;28;20396;-58
2021/05/15 01:51:00;;;;;;;2.30;0.50;;;21.70;41.70;;;;;;5073695;28;20415;-58
2021/05/15 01:53:28;;;;;;;1.50;0.35;;;21.70;41.70;;;;;;5073594;28;20388;-58
2021/05/15 01:55:55;;;;;;;2.78;0.57;;;21.70;41.70;;;;;;5072994;28;20881;-58
2021/05/15 01:58:21;;;;;;;2.05;0.40;;;21.70;41.60;;;;;;5073422;28;20392;-58
2021/05/15 02:00:48;;;;;;;2.13;0.43;;;21.70;41.70;;;;;;5055355;28;20402;-58
2021/05/15 02:03:13;;;;;;;1.80;0.50;;;21.70;41.60;;;;;;5072993;28;20513;-57
2021/05/15 02:05:39;;;;;;;2.00;0.40;;;21.60;41.50;;;;;;5072707;28;20512;-58
2021/05/15 02:08:06;;;;;;;2.20;0.40;;;21.70;41.50;;;;;;5073185;28;20395;-59
2021/05/15 02:10:31;;;;;;;1.90;0.40;;;21.70;41.60;;;;;;5073139;28;20538;-58
2021/05/15 02:12:57;;;;;;;1.00;0.30;;;21.70;41.60;;;;;;5073184;28;20423;-58
2021/05/15 02:15:23;;;;;;;2.65;0.50;;;21.70;41.60;;;;;;5073029;28;20423;-58
2021/05/15 02:17:49;;;;;;;0.82;0.30;;;21.60;41.40;;;;;;5072646;28;20372;-58
2021/05/15 02:20:14;;;;;;;1.73;0.40;;;21.60;41.40;;;;;;5073001;28;20383;-58
2021/05/15 02:22:40;;;;;;;0.85;0.40;;;21.60;41.60;;;;;;5072800;28;20411;-58
2021/05/15 02:25:07;;;;;;;1.10;0.30;;;21.60;41.50;;;;;;5072849;28;20451;-57
2021/05/15 02:27:32;;;;;;;1.00;0.50;;;21.60;41.40;;;;;;5072945;28;20767;-58
2021/05/15 02:29:58;;;;;;;0.80;0.40;;;21.60;41.40;;;;;;5072418;28;20948;-58
2021/05/15 02:32:23;;;;;;;1.08;0.40;;;21.60;41.50;;;;;;5072683;28;20383;-57
2021/05/15 02:34:49;;;;;;;0.67;0.40;;;21.60;41.40;;;;;;5071969;28;20390;-58
2021/05/15 02:37:15;;;;;;;1.42;0.32;;;21.60;41.50;;;;;;5072772;28;20372;-58
2021/05/15 02:39:40;;;;;;;0.80;0.30;;;21.60;41.50;;;;;;5072278;28;20435;-58
2021/05/15 02:42:06;;;;;;;1.33;0.32;;;21.60;41.40;;;;;;5054566;28;20430;-60
2021/05/15 02:44:32;;;;;;;0.97;0.30;;;21.60;41.40;;;;;;5072501;28;20380;-58
2021/05/15 02:46:58;;;;;;;1.88;0.40;;;21.60;41.40;;;;;;5072522;28;20890;-58
2021/05/15 02:49:24;;;;;;;0.90;0.40;;;21.60;41.40;;;;;;5072381;28;20790;-58
2021/05/15 02:51:49;;;;;;;0.87;0.40;;;21.50;41.40;;;;;;5053969;28;20453;-58
2021/05/15 02:54:15;;;;;;;0.90;0.40;;;21.60;41.50;;;;;;5072396;28;20725;-58
2021/05/15 02:56:41;;;;;;;0.77;0.37;;;21.60;41.60;;;;;;5072156;28;20372;-58
2021/05/15 02:59:06;;;;;;;0.50;0.30;;;21.60;41.40;;;;;;5072307;28;20392;-58
2021/05/15 03:01:32;;;;;;;1.37;0.60;;;21.60;41.50;;;;;;5072127;28;20922;-58
2021/05/15 03:03:58;;;;;;;1.13;0.30;;;21.50;41.50;;;;;;5071465;28;20902;-58
2021/05/15 03:06:24;;;;;;;2.10;0.37;;;21.50;41.50;;;;;;5072168;28;20748;-58
2021/05/15 03:08:49;;;;;;;1.00;0.32;;;21.50;41.50;;;;;;5071994;28;20391;-58
2021/05/15 03:11:15;;;;;;;1.50;0.40;;;21.50;41.50;;;;;;5072051;28;20396;-57
2021/05/15 03:13:40;;;;;;;0.57;0.30;;;21.50;41.50;;;;;;5071752;28;20395;-58
2021/05/15 03:16:06;;;;;;;1.13;0.30;;;21.50;41.60;;;;;;5071862;28;20413;-58
2021/05/15 03:18:32;;;;;;;0.55;0.30;;;21.50;41.60;;;;;;5071848;28;20429;-59
2021/05/15 03:20:57;;;;;;;1.53;0.40;;;21.50;41.50;;;;;;5071822;28;20410;-58
2021/05/15 03:23:23;;;;;;;0.88;0.32;;;21.50;41.50;;;;;;5071812;28;20395;-59
2021/05/15 03:25:49;;;;;;;1.30;0.30;;;21.50;41.60;;;;;;5071354;28;20384;-58
2021/05/15 03:28:14;;;;;;;0.43;0.20;;;21.50;41.60;;;;;;5071851;28;20758;-58
2021/05/15 03:30:41;;;;;;;0.80;0.30;;;21.50;41.50;;;;;;5071755;28;20797;-58
2021/05/15 03:33:06;;;;;;;0.63;0.30;;;21.50;41.50;;;;;;5071722;28;20751;-58
2021/05/15 03:35:32;;;;;;;0.68;0.28;;;21.50;41.50;;;;;;5071662;28;20399;-58
2021/05/15 03:37:58;;;;;;;0.60;0.30;;;21.50;41.60;;;;;;5071293;28;20778;-58
2021/05/15 03:40:24;;;;;;;0.50;0.30;;;21.50;41.60;;;;;;5071522;28;20863;-58
2021/05/15 03:42:53;;;;;;;0.43;0.30;;;21.50;41.60;;;;;;5071573;28;20560;-58
2021/05/15 03:45:19;;;;;;;0.68;0.30;;;21.50;41.60;;;;;;5071313;28;20875;-58
2021/05/15 03:47:45;;;;;;;0.47;0.28;;;21.50;41.70;;;;;;5071032;28;20430;-58
2021/05/15 03:50:11;;;;;;;0.52;0.30;;;21.50;41.60;;;;;;5071564;28;20871;-58
2021/05/15 03:52:37;;;;;;;1.00;0.30;;;21.50;41.70;;;;;;5071398;28;20403;-58
2021/05/15 03:55:03;;;;;;;0.82;0.50;;;21.50;41.60;;;;;;5071545;28;20383;-57
2021/05/15 03:57:29;;;;;;;1.20;0.40;;;21.50;41.60;;;;;;5071422;28;20784;-58
2021/05/15 03:59:54;;;;;;;0.95;0.40;;;21.50;41.70;;;;;;5071175;28;20415;-58
2021/05/15 04:02:22;;;;;;;0.82;0.40;;;21.50;41.60;;;;;;5071149;28;20748;-58
2021/05/15 04:04:49;;;;;;;0.65;0.40;;;21.50;42.20;;;;;;5071361;28;20388;-57
2021/05/15 04:07:14;;;;;;;1.20;0.32;;;21.50;41.60;;;;;;5071421;28;20490;-57
2021/05/15 04:09:40;;;;;;;0.70;0.40;;;21.40;41.50;;;;;;5071331;28;20398;-58
2021/05/15 04:12:06;;;;;;;0.70;0.30;;;21.40;41.70;;;;;;5071019;28;20476;-58
2021/05/15 04:14:38;;;;;;;0.50;0.30;;;21.40;41.60;;;;;;5071233;28;20384;-59
2021/05/15 04:19:32;;;;;;;0.68;0.35;;;21.40;41.60;;;;;;5071374;28;20407;-58
2021/05/15 04:21:58;;;;;;;0.90;0.38;;;21.40;41.70;;;;;;5070695;28;20960;-58
2021/05/15 04:24:25;;;;;;;0.60;0.40;;;21.40;41.60;;;;;;5071149;28;20395;-58
2021/05/15 04:26:59;;;;;;;0.60;0.40;;;21.40;41.60;;;;;;5053272;28;20404;-58
2021/05/15 04:29:25;;;;;;;0.52;0.32;;;21.40;41.60;;;;;;5071153;28;20384;-58
2021/05/15 04:31:56;;;;;;;0.60;0.40;;;21.40;41.60;;;;;;5052694;28;20415;-58
2021/05/15 04:34:23;;;;;;;0.70;0.20;;;21.40;41.60;;;;;;5053095;28;20392;-58
2021/05/15 04:36:49;;;;;;;0.70;0.40;;;21.40;41.60;;;;;;5071109;28;20387;-58
2021/05/15 04:39:15;;;;;;;0.70;0.40;;;21.40;41.70;;;;;;5053176;28;20399;-58
2021/05/15 04:41:41;;;;;;;1.10;0.40;;;21.40;41.60;;;;;;5070899;28;20407;-57
2021/05/15 04:44:07;;;;;;;1.50;0.40;;;21.40;41.60;;;;;;5070582;28;20471;-57
2021/05/15 04:46:33;;;;;;;1.80;0.50;;;21.40;41.80;;;;;;5070890;28;20404;-58
2021/05/15 04:48:59;;;;;;;1.15;0.40;;;21.40;41.90;;;;;;5070982;28;20391;-58
2021/05/15 04:51:24;;;;;;;1.20;0.30;;;21.40;41.60;;;;;;5070912;28;20388;-58
2021/05/15 04:53:50;;;;;;;0.93;0.40;;;21.50;41.40;;;;;;5070439;28;20489;-58
2021/05/15 04:56:16;;;;;;;1.23;0.40;;;21.60;41.90;;;;;;5052944;28;20413;-58
2021/05/15 04:58:42;;;;;;;1.07;0.37;;;21.70;41.40;;;;;;5073030;28;20395;-58
2021/05/15 05:01:08;;;;;;;0.75;0.30;;;21.70;41.40;;;;;;5074456;28;20474;-57
2021/05/15 05:03:34;;;;;;;1.25;0.40;;;21.80;41.20;;;;;;5074295;28;20422;-57
2021/05/15 05:05:59;;;;;;;0.40;0.20;;;21.80;41.20;;;;;;5073885;28;20383;-58
2021/05/15 05:08:25;;;;;;;1.10;0.30;;;21.90;41.10;;;;;;5074374;28;20396;-57
2021/05/15 05:10:55;;;;;;;0.95;0.30;;;21.90;41.30;;;;;;5074179;28;20390;-58
2021/05/15 05:13:21;;;;;;;0.70;0.40;;;22.00;41.30;;;;;;5074240;28;20512;-58
2021/05/15 05:15:47;;;;;;;1.80;0.30;;;22.00;41.00;;;;;;5073956;28;20399;-58
2021/05/15 05:18:13;;;;;;;1.75;0.40;;;22.00;41.30;;;;;;5074203;28;20380;-57
2021/05/15 05:20:39;;;;;;;0.90;0.30;;;22.00;41.00;;;;;;5056436;28;20820;-58
2021/05/15 05:23:06;;;;;;;0.90;0.30;;;22.00;41.40;;;;;;5074028;28;20487;-58
2021/05/15 05:25:32;;;;;;;0.57;0.30;;;22.10;40.90;;;;;;5074091;28;20782;-58
2021/05/15 05:27:59;;;;;;;0.90;0.30;;;22.10;40.90;;;;;;5073515;28;20441;-58
2021/05/15 05:30:25;;;;;;;0.60;0.30;;;22.10;41.00;;;;;;5073956;28;20380;-58
2021/05/15 05:32:51;;;;;;;0.80;0.30;;;22.10;40.70;;;;;;5074008;28;20462;-58
2021/05/15 05:35:18;;;;;;;1.33;0.30;;;22.10;40.60;;;;;;5073848;28;20735;-58
2021/05/15 05:37:45;;;;;;;1.50;0.50;;;22.20;40.60;;;;;;5056195;28;20875;-58
2021/05/15 05:40:11;;;;;;;0.50;0.22;;;22.20;40.40;;;;;;5073385;28;20855;-59
2021/05/15 05:42:39;;;;;;;0.38;0.30;;;22.20;40.20;;;;;;5073708;28;20415;-58
2021/05/15 05:45:09;;;;;;;0.60;0.30;;;22.20;40.30;;;;;;5073731;28;20764;-58
2021/05/15 05:47:35;;;;;;;0.43;0.20;;;22.30;40.10;;;;;;5073638;28;20427;-58
2021/05/15 05:50:02;;;;;;;0.60;0.28;;;22.30;40.00;;;;;;5073077;28;20408;-57
2021/05/15 05:52:27;;;;;;;0.63;0.30;;;22.30;40.20;;;;;;5073469;28;20914;-58
2021/05/15 05:54:53;;;;;;;0.50;0.20;;;22.30;40.20;;;;;;5073597;28;20420;-64
2021/05/15 05:57:19;;;;;;;1.33;0.20;;;22.30;39.80;;;;;;5055562;28;20383;-58
2021/05/15 05:59:44;;;;;;;0.50;0.20;;;22.30;40.10;;;;;;5073518;28;20422;-58
2021/05/15 06:02:11;;;;;;;0.40;0.20;;;22.30;39.80;;;;;;5072831;28;20415;-58
2021/05/15 06:04:37;;;;;;;0.40;0.20;;;22.30;39.80;;;;;;5073352;28;20392;-58
2021/05/15 06:07:03;;;;;;;0.40;0.20;;;22.40;39.80;;;;;;5073427;28;20430;-59
2021/05/15 06:09:29;;;;;;;0.43;0.20;;;22.40;40.10;;;;;;5072044;28;20748;-57
2021/05/15 06:11:54;;;;;;;0.30;0.20;;;22.40;39.50;;;;;;5072709;28;20465;-57
2021/05/15 06:14:20;;;;;;;1.47;0.30;;;22.40;39.80;;;;;;5073158;28;20419;-57
2021/05/15 06:16:46;;;;;;;2.13;0.20;;;22.40;39.50;;;;;;5073161;28;20471;-58
2021/05/15 06:19:11;;;;;;;0.80;0.23;;;22.40;39.80;;;;;;5073249;28;20466;-58
2021/05/15 06:21:37;;;;;;;1.25;0.28;;;22.30;40.00;;;;;;5072952;28;20404;-58
2021/05/15 06:24:03;;;;;;;1.13;0.27;;;22.30;40.00;;;;;;5072483;28;20454;-57
2021/05/15 06:26:29;;;;;;;0.52;0.20;;;22.40;39.80;;;;;;5072794;28;20380;-57
2021/05/15 06:28:54;;;;;;;0.82;0.30;;;22.40;39.60;;;;;;5072940;28;20848;-57
2021/05/15 06:31:20;;;;;;;0.53;0.20;;;22.50;39.40;;;;;;5072719;28;20387;-58
2021/05/15 06:33:46;;;;;;;0.70;0.20;;;22.50;39.50;;;;;;5072711;28;20380;-58
2021/05/15 06:36:11;;;;;;;0.97;0.20;;;22.40;39.80;;;;;;5072172;28;20395;-58
2021/05/15 06:38:37;;;;;;;1.20;0.22;;;22.40;39.40;;;;;;5072650;28;20392;-58
2021/05/15 06:41:03;;;;;;;0.97;0.30;;;22.50;39.40;;;;;;5072510;28;20392;-58
2021/05/15 06:43:29;;;;;;;1.00;0.28;;;22.50;39.30;;;;;;5072513;28;20388;-57
2021/05/15 06:45:54;;;;;;;0.52;0.20;;;22.50;39.30;;;;;;5072138;28;20384;-58
2021/05/15 06:48:20;;;;;;;0.57;0.23;;;22.50;39.40;;;;;;5072319;28;20400;-58
2021/05/15 06:50:46;;;;;;;1.10;0.30;;;22.50;39.20;;;;;;5072484;28;20466;-59
2021/05/15 06:53:11;;;;;;;0.50;0.20;;;22.50;39.30;;;;;;5072438;28;20384;-58
2021/05/15 06:55:37;;;;;;;0.80;0.20;;;22.60;39.30;;;;;;5072245;28;20383;-58
2021/05/15 06:58:07;;;;;;;0.50;0.30;;;22.60;39.20;;;;;;5071979;28;20418;-58
2021/05/15 07:00:33;;;;;;;0.90;0.30;;;22.60;39.20;;;;;;5072166;28;20395;-58
2021/05/15 07:02:58;;;;;;;1.40;0.30;;;22.60;39.10;;;;;;5072143;28;20431;-57
2021/05/15 07:05:24;;;;;;;0.60;0.23;;;22.50;39.70;;;;;;5072109;28;20391;-58
2021/05/15 07:07:50;;;;;;;1.30;0.30;;;22.50;39.70;;;;;;5071980;28;20395;-58
2021/05/15 07:10:15;;;;;;;1.00;0.30;;;22.50;39.70;;;;;;5071572;28;20388;-58
2021/05/15 07:12:41;;;;;;;1.50;0.30;;;22.60;39.30;;;;;;5072016;28;20398;-58
2021/05/15 07:15:08;;;;;;;1.43;0.30;;;22.60;39.40;;;;;;5072001;28;20379;-58
2021/05/15 07:17:34;;;;;;;1.38;0.30;;;22.60;39.20;;;;;;5071882;28;20795;-58
2021/05/15 07:20:00;;;;;;;0.60;0.20;;;22.60;39.20;;;;;;5071155;28;20388;-58
2021/05/15 07:22:27;;;;;;;1.50;0.30;;;22.60;39.40;;;;;;5053668;28;20472;-58
2021/05/15 07:24:53;;;;;;;1.30;0.22;;;22.60;39.10;;;;;;5071902;28;20438;-58
2021/05/15 07:27:20;;;;;;;0.88;0.22;;;22.60;39.50;;;;;;5071774;28;20420;-58
2021/05/15 07:29:46;;;;;;;2.83;0.20;;;22.60;39.20;;;;;;5071779;28;20403;-58
2021/05/15 07:32:12;;;;;;;5.00;0.30;;;22.60;39.30;;;;;;5071292;28;20384;-58
2021/05/15 07:34:37;;;;;;;1.30;0.30;;;22.70;39.40;;;;;;5071732;28;20859;-58
2021/05/15 07:37:03;;;;;;;2.10;0.28;;;22.60;39.10;;;;;;5071781;28;20387;-58
2021/05/15 07:39:29;;;;;;;3.15;0.35;;;22.70;39.80;;;;;;5071347;28;20790;-58
2021/05/15 07:41:55;;;;;;;3.57;0.60;;;22.60;40.40;;;;;;5071306;28;20415;-59
2021/05/15 07:44:23;;;;;;;0.93;0.30;;;22.70;39.90;;;;;;5052998;28;20384;-58
2021/05/15 07:46:49;;;;;;;2.72;0.30;;;22.70;39.70;;;;;;5071498;28;20751;-58
2021/05/15 07:49:15;;;;;;;1.55;0.30;;;22.70;39.80;;;;;;5071459;28;20393;-58
2021/05/15 07:51:40;;;;;;;1.37;0.30;;;22.70;40.10;;;;;;5071595;28;20380;-58
2021/05/15 07:54:06;;;;;;;4.53;0.40;;;22.70;40.00;;;;;;5071028;28;20394;-58
2021/05/15 07:56:32;;;;;;;2.10;0.40;;;22.70;40.00;;;;;;5053486;28;20387;-59
2021/05/15 07:58:58;;;;;;;2.00;0.30;;;22.70;39.30;;;;;;5071405;28;20384;-58
2021/05/15 08:01:23;;;;;;;1.73;0.38;;;22.80;40.00;;;;;;5053373;28;20403;-58
2021/05/15 08:03:49;;;;;;;2.47;0.30;;;22.70;39.90;;;;;;5053237;28;20411;-58
2021/05/15 08:06:15;;;;;;;1.65;0.30;;;22.80;39.60;;;;;;5070961;28;20391;-58
2021/05/15 08:08:40;;;;;;;3.43;0.40;;;22.80;39.40;;;;;;5071385;28;20464;-58
2021/05/15 08:11:06;;;;;;;2.65;0.35;;;22.80;39.40;;;;;;5053470;28;20789;-58
2021/05/15 08:13:32;;;;;;;2.73;0.40;;;22.80;39.30;;;;;;5071233;28;20466;-58
2021/05/15 08:15:57;;;;;;;1.65;0.30;;;22.80;39.40;;;;;;5071127;28;20383;-58
2021/05/15 08:18:23;;;;;;;2.30;0.30;;;22.80;39.50;;;;;;5070880;28;20398;-58
2021/05/15 08:20:49;;;;;;;1.65;0.40;;;22.80;39.50;;;;;;5071316;28;20411;-59
2021/05/15 08:23:15;;;;;;;3.53;0.40;;;22.80;39.60;;;;;;5052957;28;20411;-58
2021/05/15 08:25:41;;;;;;;1.50;0.30;;;22.70;39.70;;;;;;5053197;28;20487;-59
2021/05/15 08:28:11;;;;;;;1.38;0.32;;;22.80;39.70;;;;;;5070719;28;20391;-58
2021/05/15 08:30:38;;;;;;;0.80;0.25;;;22.80;39.70;;;;;;5069882;28;20372;-59
2021/05/15 08:33:08;;;;;;;1.17;0.20;;;22.80;39.60;;;;;;5053593;28;20759;-58
2021/05/15 08:35:34;;;;;;;1.25;0.40;;;22.80;39.60;;;;;;5074608;28;20486;-58
2021/05/15 08:38:01;;;;;;;1.10;0.30;;;22.90;39.60;;;;;;5074609;28;20470;-58
2021/05/15 08:40:27;;;;;;;0.80;0.30;;;23.00;39.50;;;;;;5074295;28;20433;-58
2021/05/15 08:42:54;;;;;;;0.40;0.20;;;23.00;39.50;;;;;;5056941;28;20424;-58
2021/05/15 08:45:21;;;;;;;1.40;0.30;;;23.00;39.40;;;;;;5074628;28;20379;-58
2021/05/15 08:47:47;;;;;;;0.70;0.20;;;23.00;39.50;;;;;;5074620;28;20391;-58
2021/05/15 08:50:16;;;;;;;1.25;0.30;;;23.00;39.40;;;;;;5074076;28;20882;-58
2021/05/15 08:52:44;;;;;;;1.20;0.30;;;23.00;39.30;;;;;;5074331;28;20396;-58
2021/05/15 08:55:12;;;;;;;1.77;0.35;;;23.00;39.20;;;;;;5074337;28;20727;-58
2021/05/15 08:57:38;;;;;;;0.70;0.20;;;23.00;39.20;;;;;;5074600;28;20502;-58
2021/05/15 09:00:16;;;;;;;0.77;0.20;;;23.00;39.10;;;;;;5074066;28;20387;-59
2021/05/15 09:02:42;;;;;;;1.50;0.22;;;23.10;39.10;;;;;;5074213;28;20472;-58
2021/05/15 09:05:09;;;;;;;0.60;0.30;;;23.10;38.90;;;;;;5074502;28;20383;-58
2021/05/15 09:07:36;;;;;;;0.70;0.30;;;23.10;38.90;;;;;;5074342;28;20415;-58
2021/05/15 09:10:04;;;;;;;1.33;0.35;;;23.10;38.90;;;;;;5056171;28;20950;-58
2021/05/15 09:12:31;;;;;;;0.90;0.30;;;23.10;39.10;;;;;;5074220;28;20748;-58
2021/05/15 09:15:01;;;;;;;0.75;0.20;;;23.10;39.10;;;;;;5056374;28;20435;-58
2021/05/15 09:17:27;;;;;;;2.40;0.30;;;23.10;39.10;;;;;;5074280;28;20384;-60
2021/05/15 09:19:54;;;;;;;1.60;0.30;;;23.10;39.00;;;;;;5074188;28;20394;-58
2021/05/15 09:22:27;;;;;;;0.60;0.20;;;23.10;39.10;;;;;;5055637;28;20412;-58
2021/05/15 09:24:53;;;;;;;1.48;0.30;;;23.20;38.90;;;;;;5074136;28;20429;-58
2021/05/15 09:27:19;;;;;;;0.98;0.25;;;23.20;38.90;;;;;;5074076;28;20391;-58
2021/05/15 09:29:48;;;;;;;1.02;0.20;;;23.20;38.90;;;;;;5074070;28;20423;-58
2021/05/15 09:32:15;;;;;;;0.60;0.20;;;23.20;38.80;;;;;;5073616;28;20392;-59
2021/05/15 09:34:49;;;;;;;0.40;0.20;;;23.30;38.80;;;;;;5074001;28;20427;-58
2021/05/15 09:37:34;;;;;;;1.50;0.20;;;23.30;38.70;;;;;;5073925;28;20379;-58
2021/05/15 09:40:29;;;;;;;0.80;0.20;;;23.30;38.60;;;;;;5073857;28;20433;-58
2021/05/15 09:42:58;;;;;;;0.60;0.20;;;23.40;38.60;;;;;;5056520;28;20506;-58
2021/05/15 09:45:32;;;;;;;0.32;0.20;;;23.50;38.50;;;;;;5073483;28;20458;-58
2021/05/15 09:48:03;;;;;;;0.20;0.10;;;23.60;38.30;;;;;;5073802;28;20419;-58
2021/05/15 09:50:31;;;;;;;2.10;0.30;;;23.60;38.80;;;;;;5073427;28;20390;-59
2021/05/15 09:53:19;;;;;;;1.80;0.20;;;23.70;38.20;;;;;;5073598;28;20383;-58
2021/05/15 09:55:51;;;;;;;2.25;0.30;;;23.60;38.30;;;;;;5073233;28;20383;-58
2021/05/15 09:58:17;;;;;;;1.10;0.30;;;23.70;38.50;;;;;;5073052;28;20387;-58
2021/05/15 10:00:49;;;;;;;1.42;0.30;;;23.70;38.20;;;;;;5073454;28;20894;-58
2021/05/15 10:03:28;;;;;;;1.48;0.30;;;23.80;37.90;;;;;;5073056;28;20438;-58
2021/05/15 10:06:05;;;;;;;2.30;0.40;;;23.80;37.80;;;;;;5073684;28;20719;-59
2021/05/15 10:08:32;;;;;;;1.20;0.20;;;23.80;37.40;;;;;;5073031;28;20391;-59
2021/05/15 10:10:59;;;;;;;1.60;0.40;;;23.80;36.70;;;;;;5073168;28;20387;-58
2021/05/15 10:13:26;;;;;;;1.73;0.40;;;23.80;36.90;;;;;;5055492;28;20392;-58
2021/05/15 10:15:52;;;;;;;1.52;0.30;;;23.90;37.20;;;;;;5073209;28;20449;-58
2021/05/15 10:18:18;;;;;;;4.68;0.38;;;24.00;37.10;;;;;;5072492;28;20396;-59
2021/05/15 10:20:45;;;;;;;1.85;0.35;;;24.10;37.20;;;;;;5072982;28;20434;-58
2021/05/15 10:23:18;;;;;;;2.40;0.30;;;24.10;37.10;;;;;;5085451;28;20447;-58
2021/05/15 10:25:44;;;;;;;2.55;0.20;;;24.20;37.10;;;;;;5093151;28;20382;-58
2021/05/15 10:28:09;;;;;;;1.60;0.40;;;24.20;37.00;;;;;;5074371;28;20403;-58
2021/05/15 10:30:35;;;;;;;4.40;0.37;;;24.20;37.00;;;;;;5074822;28;20900;-58
2021/05/15 10:33:08;;;;;;;1.50;0.35;;;24.30;37.20;;;;;;5092636;28;20393;-58
2021/05/15 10:35:40;;;;;;;1.95;0.30;;;24.30;38.20;;;;;;5092843;28;20378;-58
2021/05/15 10:38:10;;;;;;;4.38;0.30;;;24.40;37.40;;;;;;5092649;28;20390;-58
2021/05/15 10:40:48;;;;;;;2.17;0.38;;;24.40;37.50;;;;;;5092630;28;20839;-58
2021/05/15 10:43:14;;;;;;;2.25;0.30;;;24.40;37.50;;;;;;5091788;28;20420;-57
2021/05/15 10:45:43;;;;;;;1.13;0.30;;;24.40;37.20;;;;;;5092245;28;20386;-58
2021/05/15 10:48:22;;;;;;;1.30;0.30;;;24.40;37.20;;;;;;5092465;28;20389;-58
2021/05/15 10:50:54;;;;;;;3.67;0.30;;;24.50;37.60;;;;;;5091839;28;20473;-58
2021/05/15 10:53:21;;;;;;;2.25;0.32;;;24.40;37.10;;;;;;5092072;28;20374;-58
2021/05/15 10:56:12;;;;;;;1.98;0.30;;;24.50;36.90;;;;;;5092009;28;20374;-58
2021/05/15 10:58:50;;;;;;;5.80;0.40;;;24.40;36.80;;;;;;5092424;28;20445;-59
2021/05/15 11:01:21;;;;;;;2.60;0.35;;;24.40;37.10;;;;;;5092399;28;20397;-58
2021/05/15 11:03:47;;;;;;;2.97;0.40;;;24.40;37.00;;;;;;5092322;28;20889;-58
2021/05/15 11:06:21;;;;;;;2.20;0.30;;;24.40;36.60;;;;;;5091942;28;20719;-58
2021/05/15 11:09:00;;;;;;;1.03;0.30;;;24.30;36.00;;;;;;5092395;28;20792;-58
2021/05/15 11:11:42;;;;;;;3.70;0.30;;;24.30;35.70;;;;;;5092101;28;20382;-59
2021/05/15 11:14:28;;;;;;;2.35;0.50;;;24.30;35.60;;;;;;5092145;28;20377;-59
2021/05/15 11:17:13;;;;;;;2.58;0.22;;;24.30;34.80;;;;;;5092221;28;20378;-58
2021/05/15 11:19:48;;;;;;;6.18;0.70;;;24.20;34.50;;;;;;5092100;28;20889;-59
2021/05/15 11:22:14;;;;;;;5.60;0.40;;;24.20;34.60;;;;;;5091659;28;20493;-59
2021/05/15 11:24:56;;;;;;;4.85;0.50;;;24.20;35.10;;;;;;5091812;28;20378;-58
2021/05/15 11:27:23;;;;;;;5.93;1.10;;;24.10;35.30;;;;;;5091482;28;20382;-58
2021/05/15 11:30:15;;;;;;;4.68;0.50;;;24.20;35.70;;;;;;5091940;28;20378;-60
2021/05/15 11:32:54;;;;;;;4.32;0.40;;;24.20;35.80;;;;;;5091934;28;20370;-58
2021/05/15 11:35:19;;;;;;;3.05;0.40;;;24.20;36.00;;;;;;5091822;28;20389;-59
2021/05/15 11:37:45;;;;;;;3.33;0.40;;;24.20;36.10;;;;;;5091907;28;20382;-58
2021/05/15 11:40:13;;;;;;;2.88;0.32;;;24.20;36.20;;;;;;5091623;28;20473;-58
2021/05/15 11:42:39;;;;;;;3.17;0.30;;;24.20;36.10;;;;;;5091477;28;20903;-58
2021/05/15 11:45:05;;;;;;;2.47;0.40;;;24.20;36.20;;;;;;5091823;28;20468;-58
2021/05/15 11:47:31;;;;;;;3.45;0.50;;;24.20;36.40;;;;;;5091722;28;20437;-58
2021/05/15 11:50:01;;;;;;;4.53;0.52;;;24.20;36.30;;;;;;5082747;28;20427;-65
2021/05/15 11:52:36;;;;;;;2.13;0.47;;;24.20;36.50;;;;;;5073464;28;20435;-59
2021/05/15 11:55:03;;;;;;;2.45;0.40;;;24.30;36.50;;;;;;5075822;28;20931;-61
2021/05/15 11:57:30;;;;;;;3.45;0.40;;;24.30;36.70;;;;;;5078646;28;20476;-59
2021/05/15 12:00:14;;;;;;;1.70;0.30;;;24.20;36.70;;;;;;5080194;28;20672;-59
2021/05/15 12:02:46;;;;;;;2.28;0.38;;;24.20;36.90;;;;;;5049805;28;20421;-58
2021/05/15 12:05:19;;;;;;;4.50;0.47;;;24.20;36.80;;;;;;5050275;28;20389;-58
2021/05/15 12:07:52;;;;;;;1.65;0.30;;;24.20;36.80;;;;;;5034540;28;20727;-58
2021/05/15 12:10:23;;;;;;;1.63;0.30;;;24.30;36.80;;;;;;5054567;28;20889;-62
2021/05/15 12:13:00;;;;;;;1.83;0.35;;;24.30;36.70;;;;;;5074206;28;20415;-58
2021/05/15 12:15:28;;;;;;;2.05;0.40;;;24.40;36.70;;;;;;5074036;28;20466;-58
2021/05/15 12:17:57;;;;;;;2.10;0.30;;;24.40;36.70;;;;;;5056110;28;20394;-58
2021/05/15 12:20:30;;;;;;;1.58;0.50;;;24.50;36.80;;;;;;5078304;28;20521;-63
2021/05/15 12:23:15;;;;;;;2.40;0.40;;;24.50;36.80;;;;;;5063145;28;20434;-58
2021/05/15 12:25:43;;;;;;;27.20;10.02;;;24.70;36.80;;;;;;5094059;28;20381;-56
2021/05/15 12:28:43;;;;;;;20.63;7.47;;;24.70;37.30;;;;;;5093944;28;20389;-56
2021/05/15 12:31:20;;;;;;;23.02;8.65;;;24.70;37.10;;;;;;5082963;28;20425;-56
2021/05/15 12:33:45;;;;;;;19.42;6.72;;;24.70;37.70;;;;;;5093770;28;20390;-56
2021/05/15 12:36:12;;;;;;;14.60;5.00;;;24.70;37.60;;;;;;5093871;28;20447;-56
2021/05/15 12:38:47;;;;;;;14.90;4.32;;;24.80;37.40;;;;;;5092782;28;20386;-56
2021/05/15 12:41:19;;;;;;;11.75;3.67;;;24.80;37.80;;;;;;5093087;28;20432;-56
2021/05/15 12:43:47;;;;;;;15.38;3.70;;;24.90;37.60;;;;;;5092793;28;20390;-56
2021/05/15 12:46:15;;;;;;;9.65;2.97;;;24.90;37.50;;;;;;5092960;28;20431;-57
2021/05/15 12:48:52;;;;;;;9.73;3.50;;;25.00;37.40;;;;;;5093220;28;20396;-56
2021/05/15 12:51:18;;;;;;;6.70;2.92;;;25.00;37.20;;;;;;5075111;28;20949;-56